createdAt,value
2023-05-24T00:00:30.971Z,6.18
2023-05-24T00:02:58.027Z,4.07
2023-05-24T00:05:24.961Z,6.25
2023-05-24T00:07:51.688Z,8.65
2023-05-24T00:10:18.432Z,4.38
2023-05-24T00:12:45.127Z,4.97
2023-05-24T00:15:12.089Z,4.80
2023-05-24T00:17:41.661Z,7.03
2023-05-24T00:20:12.333Z,6.75
2023-05-24T00:22:39.458Z,6.03
2023-05-24T00:25:06.708Z,5.70
2023-05-24T00:27:33.668Z,7.68
2023-05-24T00:30:00.462Z,6.43
2023-05-24T00:32:27.279Z,4.78
2023-05-24T00:34:54.075Z,4.30
2023-05-24T00:37:20.820Z,5.07
2023-05-24T00:39:50.727Z,7.78
2023-05-24T00:42:17.526Z,8.00
2023-05-24T00:44:44.259Z,6.45
2023-05-24T00:47:11.018Z,5.38
2023-05-24T00:49:37.790Z,8.93
2023-05-24T00:52:04.759Z,4.45
2023-05-24T00:54:31.449Z,5.53
2023-05-24T00:56:58.228Z,3.90
2023-05-24T00:59:25.027Z,10.20
2023-05-24T01:01:52.198Z,5.70
2023-05-24T01:04:20.543Z,10.52
2023-05-24T01:06:59.372Z,5.28
2023-05-24T01:09:34.269Z,6.28
2023-05-24T01:12:07.014Z,10.00
2023-05-24T01:14:51.985Z,9.63
2023-05-24T01:17:24.581Z,6.43
2023-05-24T01:19:51.433Z,5.53
2023-05-24T01:22:33.350Z,8.60
2023-05-24T01:25:31.092Z,9.18
2023-05-24T01:27:57.855Z,8.30
2023-05-24T01:30:26.743Z,8.45
2023-05-24T01:32:53.800Z,4.68
2023-05-24T01:35:20.721Z,7.63
2023-05-24T01:37:47.489Z,6.20
2023-05-24T01:40:14.242Z,7.32
2023-05-24T01:42:45.197Z,6.63
2023-05-24T01:45:17.298Z,6.65
2023-05-24T01:48:05.855Z,6.87
2023-05-24T01:50:35.204Z,9.15
2023-05-24T01:53:08.066Z,8.77
2023-05-24T01:55:35.444Z,10.65
2023-05-24T01:58:05.950Z,7.43
2023-05-24T02:00:33.620Z,7.15
2023-05-24T02:03:02.407Z,10.13
2023-05-24T02:05:29.365Z,8.93
2023-05-24T02:07:56.232Z,9.90
2023-05-24T02:10:23.043Z,11.98
2023-05-24T02:12:49.862Z,7.03
2023-05-24T02:15:16.716Z,8.77
2023-05-24T02:17:43.557Z,9.07
2023-05-24T02:20:11.207Z,7.38
2023-05-24T02:22:38.017Z,7.25
2023-05-24T02:25:05.233Z,6.38
2023-05-24T02:27:32.017Z,11.55
2023-05-24T02:29:58.900Z,7.03
2023-05-24T02:32:25.785Z,8.93
2023-05-24T02:34:52.666Z,9.73
2023-05-24T02:37:20.843Z,13.10
2023-05-24T02:39:47.708Z,7.97
2023-05-24T02:42:14.473Z,10.07
2023-05-24T02:44:42.956Z,7.28
2023-05-24T02:47:09.738Z,10.45
2023-05-24T02:49:36.496Z,10.18
2023-05-24T02:52:03.308Z,7.38
2023-05-24T02:54:30.112Z,9.05
2023-05-24T02:56:58.133Z,8.15
2023-05-24T02:59:25.204Z,7.15
2023-05-24T03:01:52.061Z,8.40
2023-05-24T03:04:18.899Z,7.18
2023-05-24T03:06:45.953Z,10.85
2023-05-24T03:09:13.090Z,6.78
2023-05-24T03:11:39.896Z,8.25
2023-05-24T03:14:06.972Z,8.63
2023-05-24T03:16:33.738Z,13.40
2023-05-24T03:19:00.624Z,7.03
2023-05-24T03:21:27.550Z,8.80
2023-05-24T03:23:54.355Z,9.10
2023-05-24T03:26:21.238Z,11.15
2023-05-24T03:28:48.016Z,9.85
2023-05-24T03:31:14.890Z,8.23
2023-05-24T03:33:41.680Z,12.75
2023-05-24T03:36:08.528Z,12.95
2023-05-24T03:38:35.351Z,10.48
2023-05-24T03:41:02.127Z,10.15
2023-05-24T03:43:28.931Z,9.15
2023-05-24T03:45:55.716Z,11.45
2023-05-24T03:48:22.589Z,8.07
2023-05-24T03:50:49.367Z,9.68
2023-05-24T03:53:16.339Z,9.73
2023-05-24T03:55:43.116Z,12.93
2023-05-24T03:58:09.905Z,9.55
2023-05-24T04:00:37.271Z,8.40
2023-05-24T04:03:06.946Z,11.20
2023-05-24T04:05:34.139Z,6.80
2023-05-24T04:08:00.978Z,11.70
2023-05-24T04:10:27.816Z,8.35
2023-05-24T04:12:57.212Z,9.82
2023-05-24T04:15:24.369Z,10.48
2023-05-24T04:17:55.460Z,7.72
2023-05-24T04:20:25.733Z,11.60
2023-05-24T04:22:52.728Z,11.02
2023-05-24T04:25:19.802Z,9.38
2023-05-24T04:27:48.913Z,10.95
2023-05-24T04:30:16.829Z,8.10
2023-05-24T04:32:46.921Z,8.13
2023-05-24T04:35:14.346Z,14.10
2023-05-24T04:37:41.212Z,8.60
2023-05-24T04:40:09.523Z,8.10
2023-05-24T04:42:36.588Z,11.90
2023-05-24T04:45:03.589Z,9.32
2023-05-24T04:47:30.541Z,6.03
2023-05-24T04:49:57.389Z,7.15
2023-05-24T04:52:24.625Z,9.98
2023-05-24T04:54:51.530Z,10.63
2023-05-24T04:57:18.382Z,13.70
2023-05-24T04:59:45.277Z,10.00
2023-05-24T05:02:12.228Z,12.50
2023-05-24T05:04:39.217Z,7.25
2023-05-24T05:07:07.484Z,7.90
2023-05-24T05:09:34.271Z,12.70
2023-05-24T05:12:01.171Z,9.85
2023-05-24T05:14:28.043Z,11.52
2023-05-24T05:16:55.181Z,7.38
2023-05-24T05:19:22.096Z,10.02
2023-05-24T05:21:48.850Z,8.75
2023-05-24T05:24:16.446Z,9.77
2023-05-24T05:26:43.274Z,11.20
2023-05-24T05:29:09.997Z,8.93
2023-05-24T05:31:37.160Z,11.55
2023-05-24T05:34:05.116Z,11.40
2023-05-24T05:36:32.526Z,11.90
2023-05-24T05:38:59.538Z,13.90
2023-05-24T05:41:26.330Z,10.77
2023-05-24T05:43:53.193Z,8.68
2023-05-24T05:46:21.768Z,9.35
2023-05-24T05:48:48.549Z,9.98
2023-05-24T05:51:15.421Z,12.70
2023-05-24T05:53:42.207Z,8.70
2023-05-24T05:56:08.980Z,11.15
2023-05-24T05:58:35.808Z,10.40
2023-05-24T06:01:05.910Z,12.68
2023-05-24T06:03:32.940Z,7.82
2023-05-24T06:05:59.779Z,8.25
2023-05-24T06:08:27.592Z,11.20
2023-05-24T06:10:54.337Z,7.57
2023-05-24T06:13:21.112Z,9.27
2023-05-24T06:15:47.941Z,10.43
2023-05-24T06:18:15.603Z,13.48
2023-05-24T06:20:42.617Z,11.52
2023-05-24T06:23:09.649Z,9.00
2023-05-24T06:25:38.813Z,10.00
2023-05-24T06:28:06.014Z,13.80
2023-05-24T06:30:34.049Z,7.50
2023-05-24T06:33:01.671Z,8.18
2023-05-24T06:35:28.576Z,13.15
2023-05-24T06:37:55.360Z,9.50
2023-05-24T06:40:22.226Z,8.02
2023-05-24T06:42:49.141Z,10.65
2023-05-24T06:45:16.106Z,6.57
2023-05-24T06:47:42.957Z,12.68
2023-05-24T06:50:09.826Z,6.07
2023-05-24T06:52:36.709Z,7.68
2023-05-24T06:55:04.162Z,11.82
2023-05-24T06:57:30.963Z,11.18
2023-05-24T06:59:58.122Z,12.20
2023-05-24T07:02:27.803Z,10.52
2023-05-24T07:04:55.116Z,10.77
2023-05-24T07:07:21.996Z,7.20
2023-05-24T07:09:48.771Z,13.35
2023-05-24T07:12:15.754Z,8.18
2023-05-24T07:14:43.104Z,10.98
2023-05-24T07:17:12.974Z,14.65
2023-05-24T07:19:39.881Z,11.75
2023-05-24T07:22:07.587Z,10.40
2023-05-24T07:24:35.038Z,5.97
2023-05-24T07:27:01.960Z,11.88
2023-05-24T07:29:31.389Z,6.68
2023-05-24T07:31:58.497Z,7.78
2023-05-24T07:34:27.752Z,7.40
2023-05-24T07:36:54.765Z,7.68
2023-05-24T07:39:21.633Z,10.38
2023-05-24T07:41:48.744Z,9.95
2023-05-24T07:44:15.927Z,11.18
2023-05-24T07:46:43.022Z,12.68
2023-05-24T07:49:09.817Z,8.70
2023-05-24T07:51:37.150Z,9.90
2023-05-24T07:54:04.157Z,8.38
2023-05-24T07:56:31.176Z,5.97
2023-05-24T07:59:03.804Z,9.57
2023-05-24T08:01:36.990Z,8.20
2023-05-24T08:04:04.427Z,9.98
2023-05-24T08:06:33.014Z,8.50
2023-05-24T08:08:59.934Z,7.50
2023-05-24T08:11:26.798Z,9.85
2023-05-24T08:13:53.644Z,10.90
2023-05-24T08:16:20.457Z,12.65
2023-05-24T08:18:47.325Z,11.13
2023-05-24T08:21:14.156Z,7.85
2023-05-24T08:23:41.427Z,11.27
2023-05-24T08:26:09.073Z,10.75
2023-05-24T08:28:36.104Z,11.95
2023-05-24T08:31:02.899Z,7.90
2023-05-24T08:33:30.026Z,8.52
2023-05-24T08:35:56.828Z,7.55
2023-05-24T08:38:23.594Z,13.10
2023-05-24T08:40:50.347Z,12.65
2023-05-24T08:43:17.116Z,11.43
2023-05-24T08:45:44.392Z,9.05
2023-05-24T08:48:13.288Z,11.48
2023-05-24T08:50:40.194Z,9.50
2023-05-24T08:53:07.330Z,12.77
2023-05-24T08:55:34.325Z,8.90
2023-05-24T08:58:01.199Z,10.68
2023-05-24T09:00:28.222Z,5.85
2023-05-24T09:02:55.159Z,8.75
2023-05-24T09:05:22.523Z,7.50
2023-05-24T09:07:50.652Z,9.57
2023-05-24T09:10:17.498Z,9.45
2023-05-24T09:12:50.473Z,11.45
2023-05-24T09:17:44.033Z,9.23
2023-05-24T09:20:11.991Z,9.75
2023-05-24T09:22:41.099Z,8.07
2023-05-24T09:25:09.903Z,8.23
2023-05-24T09:27:37.862Z,9.80
2023-05-24T09:30:10.427Z,10.48
2023-05-24T09:32:37.595Z,13.00
2023-05-24T09:35:08.422Z,10.07
2023-05-24T09:37:36.672Z,12.02
2023-05-24T09:40:07.266Z,8.98
2023-05-24T09:42:34.147Z,8.63
2023-05-24T09:45:12.101Z,12.75
2023-05-24T09:47:43.056Z,11.80
2023-05-24T09:50:15.000Z,10.80
2023-05-24T09:52:42.283Z,7.40
2023-05-24T09:55:16.180Z,15.07
2023-05-24T09:58:08.612Z,12.23
2023-05-24T10:00:41.824Z,12.20
2023-05-24T10:03:28.155Z,13.65
2023-05-24T10:05:55.077Z,10.65
2023-05-24T10:08:22.472Z,10.63
2023-05-24T10:10:49.238Z,8.18
2023-05-24T10:13:17.791Z,11.63
2023-05-24T10:15:46.120Z,12.95
2023-05-24T10:18:14.091Z,14.18
2023-05-24T10:23:30.633Z,16.95
2023-05-24T10:26:09.832Z,12.35
2023-05-24T10:28:58.550Z,9.50
2023-05-24T10:31:37.008Z,12.25
2023-05-24T10:34:08.400Z,11.50
2023-05-24T10:36:35.812Z,15.02
2023-05-24T10:39:03.702Z,12.20
2023-05-24T10:41:30.486Z,9.48
2023-05-24T10:41:46.873Z,11.30
2023-05-24T10:44:09.462Z,8.07
2023-05-24T10:46:38.514Z,17.08
2023-05-24T10:49:06.885Z,14.65
2023-05-24T10:51:38.920Z,12.60
2023-05-24T10:54:27.396Z,12.60
2023-05-24T10:56:54.387Z,11.68
2023-05-24T10:59:28.874Z,11.48
2023-05-24T11:01:57.835Z,12.48
2023-05-24T11:04:24.937Z,10.45
2023-05-24T11:07:03.639Z,17.67
2023-05-24T11:09:30.459Z,11.00
2023-05-24T11:12:04.269Z,17.65
2023-05-24T11:14:32.417Z,11.63
2023-05-24T11:17:00.535Z,9.40
2023-05-24T11:19:51.910Z,9.50
2023-05-24T11:22:24.406Z,9.32
2023-05-24T11:24:52.521Z,7.88
2023-05-24T11:27:19.466Z,11.10
2023-05-24T11:29:48.426Z,12.02
2023-05-24T11:32:17.154Z,8.10
2023-05-24T11:34:47.261Z,12.13
2023-05-24T11:37:16.788Z,8.75
2023-05-24T11:39:44.900Z,6.68
2023-05-24T11:42:12.390Z,10.45
2023-05-24T11:44:39.322Z,8.23
2023-05-24T11:47:08.366Z,9.48
2023-05-24T11:49:35.680Z,9.07
2023-05-24T11:52:02.935Z,12.73
2023-05-24T11:54:30.417Z,7.47
2023-05-24T11:56:57.554Z,7.57
2023-05-24T11:59:28.523Z,8.63
2023-05-24T12:02:03.908Z,8.38
2023-05-24T12:04:31.685Z,9.73
2023-05-24T12:06:58.941Z,9.45
2023-05-24T12:09:25.978Z,6.10
2023-05-24T12:11:53.584Z,8.30
2023-05-24T12:14:24.872Z,10.13
2023-05-24T12:16:56.267Z,6.90
2023-05-24T12:19:32.994Z,7.35
2023-05-24T12:22:04.979Z,10.73
2023-05-24T12:24:32.198Z,9.52
2023-05-24T12:27:03.408Z,6.35
2023-05-24T12:29:38.935Z,6.18
2023-05-24T12:32:11.925Z,5.70
2023-05-24T12:34:41.580Z,8.15
2023-05-24T12:37:09.409Z,8.05
2023-05-24T12:39:36.989Z,7.20
2023-05-24T12:42:04.960Z,7.88
2023-05-24T12:44:34.857Z,10.23
2023-05-24T12:47:02.858Z,6.15
2023-05-24T12:49:29.996Z,7.80
2023-05-24T12:51:57.314Z,9.15
2023-05-24T12:54:25.754Z,6.93
2023-05-24T12:56:56.722Z,8.32
2023-05-24T12:59:24.109Z,10.43
2023-05-24T13:01:52.143Z,8.73
2023-05-24T13:04:21.132Z,7.93
2023-05-24T13:06:48.504Z,9.38
2023-05-24T13:09:18.174Z,11.27
2023-05-24T13:11:45.693Z,5.00
2023-05-24T13:14:12.860Z,8.68
2023-05-24T13:16:39.846Z,5.43
2023-05-24T13:19:06.802Z,8.43
2023-05-24T13:21:33.999Z,5.68
2023-05-24T13:24:01.060Z,8.68
2023-05-24T13:26:28.109Z,9.27
2023-05-24T13:29:26.559Z,4.45
2023-05-24T13:31:42.064Z,6.60
2023-05-24T13:34:11.265Z,11.65
2023-05-24T13:36:38.696Z,7.55
2023-05-24T13:39:15.444Z,5.22
2023-05-24T13:41:43.566Z,5.05
2023-05-24T13:44:10.916Z,7.82
2023-05-24T13:46:38.954Z,5.63
2023-05-24T13:49:06.911Z,6.85
2023-05-24T13:51:33.699Z,7.13
2023-05-24T13:54:00.705Z,4.82
2023-05-24T13:56:32.973Z,6.85
2023-05-24T14:01:27.873Z,6.65
2023-05-24T14:03:54.801Z,8.90
2023-05-24T14:06:22.052Z,6.15
2023-05-24T14:08:49.314Z,6.13
2023-05-24T14:11:16.429Z,5.13
2023-05-24T14:14:43.162Z,5.38
2023-05-24T14:16:30.604Z,6.43
2023-05-24T14:18:57.592Z,4.45
2023-05-24T14:21:27.028Z,4.57
2023-05-24T14:23:54.300Z,5.93
2023-05-24T14:26:24.006Z,6.55
2023-05-24T14:28:53.592Z,5.95
2023-05-24T14:31:22.332Z,4.40
2023-05-24T14:33:49.188Z,7.03
2023-05-24T14:36:16.223Z,6.95
2023-05-24T14:38:43.070Z,4.60
2023-05-24T14:41:10.274Z,5.50
2023-05-24T14:43:38.083Z,7.22
2023-05-24T14:46:05.170Z,10.27
2023-05-24T14:48:31.994Z,8.75
2023-05-24T14:50:58.936Z,8.75
2023-05-24T14:53:25.815Z,7.53
2023-05-24T14:55:54.499Z,5.18
2023-05-24T14:58:21.446Z,8.10
2023-05-24T15:00:48.444Z,4.38
2023-05-24T15:03:15.613Z,4.65
2023-05-24T15:05:43.184Z,10.25
2023-05-24T15:08:11.438Z,5.40
2023-05-24T15:10:43.847Z,6.93
2023-05-24T15:13:11.108Z,6.68
2023-05-24T15:15:38.020Z,5.97
2023-05-24T15:18:05.028Z,6.80
2023-05-24T15:20:35.648Z,6.05
2023-05-24T15:23:03.653Z,8.02
2023-05-24T15:25:30.577Z,6.10
2023-05-24T15:27:58.096Z,6.15
2023-05-24T15:30:25.026Z,6.30
2023-05-24T15:32:51.907Z,6.03
2023-05-24T15:35:18.759Z,5.22
2023-05-24T15:37:46.180Z,8.52
2023-05-24T15:40:13.749Z,7.82
2023-05-24T15:42:40.817Z,7.60
2023-05-24T15:45:08.149Z,6.97
2023-05-24T15:47:40.670Z,5.45
2023-05-24T15:50:08.852Z,7.15
2023-05-24T15:52:36.343Z,7.25
2023-05-24T15:55:03.457Z,5.90
2023-05-24T15:57:30.998Z,3.63
2023-05-24T15:59:58.437Z,8.40
2023-05-24T16:02:25.465Z,6.15
2023-05-24T16:04:52.365Z,7.55
2023-05-24T16:07:19.736Z,6.53
2023-05-24T16:09:47.102Z,3.30
2023-05-24T16:12:13.905Z,6.15
2023-05-24T16:14:40.674Z,5.30
2023-05-24T16:17:07.695Z,6.60
2023-05-24T16:19:34.522Z,5.60
2023-05-24T16:22:01.372Z,6.10
2023-05-24T16:24:28.270Z,6.03
2023-05-24T16:26:56.982Z,5.72
2023-05-24T16:29:24.214Z,4.65
2023-05-24T16:31:51.262Z,6.55
2023-05-24T16:34:17.999Z,4.68
2023-05-24T16:36:47.539Z,5.47
2023-05-24T16:39:14.415Z,5.55
2023-05-24T16:41:41.625Z,8.00
2023-05-24T16:44:09.210Z,5.45
2023-05-24T16:46:37.010Z,6.63
2023-05-24T16:49:03.964Z,10.20
2023-05-24T16:51:30.920Z,4.28
2023-05-24T16:53:58.017Z,6.38
2023-05-24T16:56:24.828Z,6.35
2023-05-24T16:58:52.145Z,8.98
2023-05-24T17:01:19.434Z,7.18
2023-05-24T17:03:46.431Z,3.92
2023-05-24T17:06:13.313Z,5.03
2023-05-24T17:08:40.167Z,7.30
2023-05-24T17:11:07.276Z,5.75
2023-05-24T17:13:34.346Z,5.10
2023-05-24T17:16:03.215Z,6.13
2023-05-24T17:18:30.227Z,4.90
2023-05-24T17:21:02.031Z,4.50
2023-05-24T17:23:32.314Z,9.25
2023-05-24T17:25:59.681Z,9.32
2023-05-24T17:28:30.015Z,4.65
2023-05-24T17:30:58.230Z,8.32
2023-05-24T17:33:26.334Z,3.88
2023-05-24T17:35:56.639Z,5.72
2023-05-24T17:38:26.065Z,5.30
2023-05-24T17:40:59.477Z,3.28
2023-05-24T17:43:32.073Z,4.03
2023-05-24T17:48:37.110Z,7.68
2023-05-24T17:51:06.368Z,6.22
2023-05-24T17:53:34.996Z,4.97
2023-05-24T17:56:02.576Z,5.72
2023-05-24T17:58:36.292Z,4.55
2023-05-24T18:01:07.998Z,5.32
2023-05-24T18:03:37.713Z,5.15
2023-05-24T18:06:07.245Z,4.40
2023-05-24T18:08:36.262Z,2.55
2023-05-24T18:11:10.457Z,3.95
2023-05-24T18:13:38.521Z,5.47
2023-05-24T18:16:09.889Z,3.35
2023-05-24T18:18:37.922Z,4.45
2023-05-24T18:21:05.624Z,5.80
2023-05-24T18:23:37.566Z,7.43
2023-05-24T18:26:08.910Z,4.78
2023-05-24T18:28:39.515Z,4.13
2023-05-24T18:31:08.772Z,5.55
2023-05-24T18:33:35.812Z,3.20
2023-05-24T18:36:03.146Z,3.33
2023-05-24T18:38:30.468Z,2.83
2023-05-24T18:40:57.258Z,3.30
2023-05-24T18:43:24.070Z,1.58
2023-05-24T18:45:50.871Z,5.80
2023-05-24T18:48:17.647Z,3.92
2023-05-24T18:50:44.423Z,3.55
2023-05-24T18:53:11.183Z,5.50
2023-05-24T18:55:38.028Z,2.22
2023-05-24T18:58:04.810Z,2.28
2023-05-24T19:00:31.630Z,2.08
2023-05-24T19:02:58.402Z,2.95
2023-05-24T19:05:25.188Z,4.55
2023-05-24T19:07:52.026Z,2.75
2023-05-24T19:10:18.837Z,4.32
2023-05-24T19:12:45.682Z,3.13
2023-05-24T19:15:12.457Z,4.28
2023-05-24T19:17:39.236Z,2.80
2023-05-24T19:20:07.373Z,3.67
2023-05-24T19:22:34.229Z,4.63
2023-05-24T19:25:01.129Z,2.15
2023-05-24T19:27:28.559Z,3.10
2023-05-24T19:29:55.344Z,1.67
2023-05-24T19:32:22.523Z,1.83
2023-05-24T19:34:49.482Z,2.10
2023-05-24T19:37:16.517Z,4.20
2023-05-24T19:39:43.267Z,3.28
2023-05-24T19:42:11.798Z,1.90
2023-05-24T19:44:38.556Z,2.40
2023-05-24T19:47:06.107Z,3.13
2023-05-24T19:49:32.873Z,2.85
2023-05-24T19:52:00.356Z,4.18
2023-05-24T19:54:27.358Z,3.60
2023-05-24T19:56:56.150Z,7.50
2023-05-24T19:59:23.090Z,5.43
2023-05-24T20:01:49.916Z,2.33
2023-05-24T20:04:16.865Z,4.00
2023-05-24T20:06:43.652Z,3.63
2023-05-24T20:09:11.608Z,2.70
2023-05-24T20:11:38.474Z,5.50
2023-05-24T20:14:05.426Z,3.10
2023-05-24T20:16:32.309Z,6.43
2023-05-24T20:19:02.300Z,3.63
2023-05-24T20:21:29.186Z,2.80
2023-05-24T20:23:58.594Z,4.78
2023-05-24T20:26:26.106Z,7.28
2023-05-24T20:28:53.118Z,5.13
2023-05-24T20:31:20.022Z,3.97
2023-05-24T20:33:47.044Z,4.22
2023-05-24T20:36:15.233Z,5.63
2023-05-24T20:38:42.219Z,3.67
2023-05-24T20:41:09.300Z,4.75
2023-05-24T20:43:36.139Z,4.35
2023-05-24T20:46:03.061Z,5.00
2023-05-24T20:48:29.972Z,5.55
2023-05-24T20:50:57.489Z,4.57
2023-05-24T20:53:24.530Z,3.20
2023-05-24T20:55:51.356Z,3.75
2023-05-24T20:58:18.214Z,4.75
2023-05-24T21:00:45.846Z,3.50
2023-05-24T21:03:13.174Z,6.38
2023-05-24T21:05:40.587Z,5.00
2023-05-24T21:08:07.529Z,3.58
2023-05-24T21:10:34.331Z,6.32
2023-05-24T21:13:01.136Z,5.03
2023-05-24T21:15:27.956Z,3.95
2023-05-24T21:17:54.898Z,3.38
2023-05-24T21:20:22.031Z,6.63
2023-05-24T21:22:49.114Z,3.97
2023-05-24T21:25:16.026Z,4.15
2023-05-24T21:27:42.834Z,4.35
2023-05-24T21:30:10.042Z,3.28
2023-05-24T21:32:36.870Z,2.97
2023-05-24T21:35:03.827Z,7.30
2023-05-24T21:37:30.631Z,3.05
2023-05-24T21:39:57.350Z,4.43
2023-05-24T21:42:24.152Z,5.53
2023-05-24T21:44:50.905Z,4.30
2023-05-24T21:47:17.718Z,5.65
2023-05-24T21:49:44.588Z,3.63
2023-05-24T21:52:11.600Z,8.10
2023-05-24T21:54:38.425Z,6.28
2023-05-24T21:57:07.432Z,6.35
2023-05-24T21:59:34.359Z,7.05
2023-05-24T22:02:01.370Z,4.97
2023-05-24T22:04:28.165Z,7.32
2023-05-24T22:06:54.954Z,4.18
2023-05-24T22:09:22.060Z,7.68
2023-05-24T22:11:48.814Z,6.93
2023-05-24T22:14:16.093Z,4.80
2023-05-24T22:16:43.030Z,7.90
2023-05-24T22:19:14.947Z,4.35
2023-05-24T22:21:43.566Z,4.13
2023-05-24T22:24:10.597Z,6.22
2023-05-24T22:26:37.432Z,6.70
2023-05-24T22:29:04.516Z,7.57
2023-05-24T22:31:33.468Z,5.55
2023-05-24T22:34:03.159Z,5.60
2023-05-24T22:36:37.958Z,8.00
2023-05-24T22:39:05.334Z,7.35
2023-05-24T22:41:32.256Z,8.05
2023-05-24T22:43:59.800Z,3.53
2023-05-24T22:46:26.652Z,7.25
2023-05-24T22:48:53.542Z,5.53
2023-05-24T22:51:20.588Z,4.18
2023-05-24T22:53:48.084Z,4.93
2023-05-24T22:56:15.022Z,6.82
2023-05-24T22:58:41.831Z,6.82
2023-05-24T23:01:08.591Z,7.25
2023-05-24T23:03:35.566Z,6.50
2023-05-24T23:06:04.600Z,5.75
2023-05-24T23:16:00.157Z,9.77
2023-05-24T23:18:27.932Z,7.20
2023-05-24T23:20:56.247Z,8.35
2023-05-24T23:23:23.394Z,8.23
2023-05-24T23:25:51.214Z,12.18
2023-05-24T23:28:18.110Z,6.13
2023-05-24T23:30:44.940Z,6.72
2023-05-24T23:33:11.733Z,7.50
2023-05-24T23:35:41.485Z,12.15
2023-05-24T23:38:08.495Z,5.28
2023-05-24T23:40:36.567Z,11.80
2023-05-24T23:43:03.886Z,13.50
2023-05-24T23:45:30.898Z,7.40
2023-05-24T23:47:58.094Z,7.55
2023-05-24T23:50:25.093Z,9.77
2023-05-24T23:52:51.849Z,7.90
2023-05-24T23:55:18.659Z,8.35
2023-05-24T23:57:46.077Z,9.95
